sensor_id;sensor_type;location;lat;lon;timestamp;temperature;humidity
46898;DHT22;32646;50.958;6.258;2023-08-31T00:00:25;12.40;99.90
46898;DHT22;32646;50.958;6.258;2023-08-31T00:02:52;12.40;99.90
46898;DHT22;32646;50.958;6.258;2023-08-31T00:05:19;12.30;99.90
46898;DHT22;32646;50.958;6.258;2023-08-31T00:07:45;12.30;99.90
46898;DHT22;32646;50.958;6.258;2023-08-31T00:10:12;12.20;99.90
46898;DHT22;32646;50.958;6.258;2023-08-31T00:12:39;12.10;99.90
46898;DHT22;32646;50.958;6.258;2023-08-31T00:15:06;12.00;99.90
46898;DHT22;32646;50.958;6.258;2023-08-31T00:17:33;11.90;99.90
46898;DHT22;32646;50.958;6.258;2023-08-31T00:19:59;12.00;99.90
46898;DHT22;32646;50.958;6.258;2023-08-31T00:22:26;11.90;99.90
46898;DHT22;32646;50.958;6.258;2023-08-31T00:24:52;11.90;99.90
46898;DHT22;32646;50.958;6.258;2023-08-31T00:27:19;11.90;99.90
46898;DHT22;32646;50.958;6.258;2023-08-31T00:29:46;11.90;99.90
46898;DHT22;32646;50.958;6.258;2023-08-31T00:32:12;11.80;99.90
46898;DHT22;32646;50.958;6.258;2023-08-31T00:34:39;11.80;99.90
46898;DHT22;32646;50.958;6.258;2023-08-31T00:37:05;11.70;99.90
46898;DHT22;32646;50.958;6.258;2023-08-31T00:39:32;11.70;99.90
46898;DHT22;32646;50.958;6.258;2023-08-31T00:41:59;11.70;99.90
46898;DHT22;32646;50.958;6.258;2023-08-31T00:44:26;11.60;99.90
46898;DHT22;32646;50.958;6.258;2023-08-31T00:46:52;11.50;99.90
46898;DHT22;32646;50.958;6.258;2023-08-31T00:49:19;11.40;99.90
46898;DHT22;32646;50.958;6.258;2023-08-31T00:51:46;11.40;99.90
46898;DHT22;32646;50.958;6.258;2023-08-31T00:54:12;11.30;99.90
46898;DHT22;32646;50.958;6.258;2023-08-31T00:56:39;11.30;99.90
46898;DHT22;32646;50.958;6.258;2023-08-31T00:59:06;11.30;99.90
46898;DHT22;32646;50.958;6.258;2023-08-31T01:09:39;11.20;99.90
46898;DHT22;32646;50.958;6.258;2023-08-31T01:12:43;11.10;99.90
46898;DHT22;32646;50.958;6.258;2023-08-31T01:15:05;11.10;99.90
46898;DHT22;32646;50.958;6.258;2023-08-31T01:17:32;11.10;99.90
46898;DHT22;32646;50.958;6.258;2023-08-31T01:20:02;11.00;99.90
46898;DHT22;32646;50.958;6.258;2023-08-31T01:23:02;11.10;99.90
46898;DHT22;32646;50.958;6.258;2023-08-31T01:25:30;11.00;99.90
46898;DHT22;32646;50.958;6.258;2023-08-31T01:27:59;11.10;99.90
46898;DHT22;32646;50.958;6.258;2023-08-31T07:29:10;14.70;99.90
46898;DHT22;32646;50.958;6.258;2023-08-31T07:31:36;14.80;99.90
46898;DHT22;32646;50.958;6.258;2023-08-31T07:34:03;14.80;99.90
46898;DHT22;32646;50.958;6.258;2023-08-31T07:36:30;14.90;99.90
46898;DHT22;32646;50.958;6.258;2023-08-31T07:38:57;15.00;99.90
46898;DHT22;32646;50.958;6.258;2023-08-31T07:41:23;15.00;99.90
46898;DHT22;32646;50.958;6.258;2023-08-31T07:43:50;15.10;99.90
46898;DHT22;32646;50.958;6.258;2023-08-31T07:46:19;15.20;99.90
46898;DHT22;32646;50.958;6.258;2023-08-31T07:48:46;15.30;99.90
46898;DHT22;32646;50.958;6.258;2023-08-31T07:51:13;15.40;99.90
46898;DHT22;32646;50.958;6.258;2023-08-31T07:53:39;15.50;99.90
46898;DHT22;32646;50.958;6.258;2023-08-31T07:56:06;15.60;99.90
46898;DHT22;32646;50.958;6.258;2023-08-31T07:58:35;15.70;99.90
46898;DHT22;32646;50.958;6.258;2023-08-31T08:01:02;15.90;99.90
46898;DHT22;32646;50.958;6.258;2023-08-31T08:03:35;16.20;99.90
46898;DHT22;32646;50.958;6.258;2023-08-31T08:06:01;16.60;99.90
46898;DHT22;32646;50.958;6.258;2023-08-31T08:08:28;17.10;99.90
46898;DHT22;32646;50.958;6.258;2023-08-31T08:10:55;17.90;99.90
46898;DHT22;32646;50.958;6.258;2023-08-31T08:13:21;18.40;99.10
46898;DHT22;32646;50.958;6.258;2023-08-31T08:15:48;18.40;94.60
46898;DHT22;32646;50.958;6.258;2023-08-31T08:18:15;18.60;94.30
46898;DHT22;32646;50.958;6.258;2023-08-31T08:20:42;18.50;96.50
46898;DHT22;32646;50.958;6.258;2023-08-31T08:23:11;19.30;94.40
46898;DHT22;32646;50.958;6.258;2023-08-31T08:25:38;19.00;95.70
46898;DHT22;32646;50.958;6.258;2023-08-31T08:28:04;18.70;94.60
46898;DHT22;32646;50.958;6.258;2023-08-31T08:30:31;19.10;95.50
46898;DHT22;32646;50.958;6.258;2023-08-31T08:32:58;19.50;95.60
46898;DHT22;32646;50.958;6.258;2023-08-31T08:35:24;19.10;90.40
46898;DHT22;32646;50.958;6.258;2023-08-31T08:37:52;19.20;91.40
46898;DHT22;32646;50.958;6.258;2023-08-31T08:40:19;19.30;90.90
46898;DHT22;32646;50.958;6.258;2023-08-31T08:42:47;19.60;91.90
46898;DHT22;32646;50.958;6.258;2023-08-31T08:45:14;19.60;90.40
46898;DHT22;32646;50.958;6.258;2023-08-31T08:47:43;19.60;88.30
46898;DHT22;32646;50.958;6.258;2023-08-31T08:50:11;19.60;91.90
46898;DHT22;32646;50.958;6.258;2023-08-31T08:52:41;20.20;92.30
46898;DHT22;32646;50.958;6.258;2023-08-31T08:55:09;19.90;90.90
46898;DHT22;32646;50.958;6.258;2023-08-31T08:57:36;20.70;85.80
46898;DHT22;32646;50.958;6.258;2023-08-31T09:00:03;20.40;82.80
46898;DHT22;32646;50.958;6.258;2023-08-31T09:02:32;20.60;87.50
46898;DHT22;32646;50.958;6.258;2023-08-31T09:04:59;20.10;84.40
46898;DHT22;32646;50.958;6.258;2023-08-31T09:07:29;19.60;89.00
46898;DHT22;32646;50.958;6.258;2023-08-31T09:09:56;20.20;91.20
46898;DHT22;32646;50.958;6.258;2023-08-31T09:12:23;20.30;85.90
46898;DHT22;32646;50.958;6.258;2023-08-31T09:15:03;19.10;86.90
46898;DHT22;32646;50.958;6.258;2023-08-31T09:17:41;18.60;91.90
46898;DHT22;32646;50.958;6.258;2023-08-31T09:20:08;18.10;96.10
46898;DHT22;32646;50.958;6.258;2023-08-31T09:22:35;18.70;96.50
46898;DHT22;32646;50.958;6.258;2023-08-31T09:25:02;19.20;92.90
46898;DHT22;32646;50.958;6.258;2023-08-31T09:27:29;19.40;90.60
46898;DHT22;32646;50.958;6.258;2023-08-31T09:29:55;20.00;92.10
46898;DHT22;32646;50.958;6.258;2023-08-31T09:32:22;20.50;91.30
46898;DHT22;32646;50.958;6.258;2023-08-31T09:34:49;21.10;84.60
46898;DHT22;32646;50.958;6.258;2023-08-31T09:37:32;20.90;79.90
46898;DHT22;32646;50.958;6.258;2023-08-31T09:40:02;20.90;84.60
46898;DHT22;32646;50.958;6.258;2023-08-31T09:42:38;21.00;86.40
46898;DHT22;32646;50.958;6.258;2023-08-31T09:45:05;21.10;83.60
46898;DHT22;32646;50.958;6.258;2023-08-31T09:47:33;21.30;83.90
46898;DHT22;32646;50.958;6.258;2023-08-31T09:50:00;21.00;79.00
46898;DHT22;32646;50.958;6.258;2023-08-31T09:52:27;21.00;82.70
46898;DHT22;32646;50.958;6.258;2023-08-31T09:54:54;20.70;84.40
46898;DHT22;32646;50.958;6.258;2023-08-31T09:57:22;20.10;91.10
46898;DHT22;32646;50.958;6.258;2023-08-31T10:00:06;19.40;89.10
46898;DHT22;32646;50.958;6.258;2023-08-31T10:02:35;19.70;90.60
46898;DHT22;32646;50.958;6.258;2023-08-31T10:05:02;20.20;88.90
46898;DHT22;32646;50.958;6.258;2023-08-31T10:07:29;20.50;85.00
46898;DHT22;32646;50.958;6.258;2023-08-31T10:10:16;20.50;84.40
46898;DHT22;32646;50.958;6.258;2023-08-31T10:13:04;20.80;78.60
46898;DHT22;32646;50.958;6.258;2023-08-31T10:15:46;20.70;85.80
46898;DHT22;32646;50.958;6.258;2023-08-31T10:18:18;20.90;78.80
46898;DHT22;32646;50.958;6.258;2023-08-31T10:20:44;20.50;79.90
46898;DHT22;32646;50.958;6.258;2023-08-31T10:23:11;20.10;82.50
46898;DHT22;32646;50.958;6.258;2023-08-31T10:28:22;20.70;81.50
46898;DHT22;32646;50.958;6.258;2023-08-31T10:31:09;21.00;78.40
46898;DHT22;32646;50.958;6.258;2023-08-31T10:33:40;21.30;81.20
46898;DHT22;32646;50.958;6.258;2023-08-31T10:36:17;21.80;77.90
46898;DHT22;32646;50.958;6.258;2023-08-31T10:41:22;21.40;69.90
46898;DHT22;32646;50.958;6.258;2023-08-31T10:43:58;21.60;74.10
46898;DHT22;32646;50.958;6.258;2023-08-31T10:49:13;21.70;72.10
46898;DHT22;32646;50.958;6.258;2023-08-31T10:51:42;22.20;75.80
46898;DHT22;32646;50.958;6.258;2023-08-31T10:59:51;21.80;74.60
46898;DHT22;32646;50.958;6.258;2023-08-31T11:02:49;22.40;75.50
46898;DHT22;32646;50.958;6.258;2023-08-31T11:05:18;22.60;69.30
46898;DHT22;32646;50.958;6.258;2023-08-31T11:07:50;21.90;71.80
46898;DHT22;32646;50.958;6.258;2023-08-31T11:10:18;21.10;77.40
46898;DHT22;32646;50.958;6.258;2023-08-31T11:12:48;21.10;76.40
46898;DHT22;32646;50.958;6.258;2023-08-31T11:15:16;22.00;87.50
46898;DHT22;32646;50.958;6.258;2023-08-31T11:17:43;22.30;77.30
46898;DHT22;32646;50.958;6.258;2023-08-31T11:20:17;22.90;72.30
46898;DHT22;32646;50.958;6.258;2023-08-31T11:22:47;22.60;72.80
46898;DHT22;32646;50.958;6.258;2023-08-31T11:25:14;21.80;73.80
46898;DHT22;32646;50.958;6.258;2023-08-31T11:27:40;21.00;75.70
46898;DHT22;32646;50.958;6.258;2023-08-31T11:30:17;20.10;76.80
46898;DHT22;32646;50.958;6.258;2023-08-31T11:32:49;19.90;81.50
46898;DHT22;32646;50.958;6.258;2023-08-31T11:35:17;20.20;86.80
46898;DHT22;32646;50.958;6.258;2023-08-31T11:37:44;20.10;86.00
46898;DHT22;32646;50.958;6.258;2023-08-31T11:40:14;19.90;81.20
46898;DHT22;32646;50.958;6.258;2023-08-31T11:42:40;19.50;84.60
46898;DHT22;32646;50.958;6.258;2023-08-31T11:45:08;19.40;88.10
46898;DHT22;32646;50.958;6.258;2023-08-31T11:47:36;19.70;82.70
46898;DHT22;32646;50.958;6.258;2023-08-31T11:50:04;20.70;84.60
46898;DHT22;32646;50.958;6.258;2023-08-31T11:52:31;21.40;76.30
46898;DHT22;32646;50.958;6.258;2023-08-31T11:54:58;21.70;78.80
46898;DHT22;32646;50.958;6.258;2023-08-31T11:57:26;21.50;73.70
46898;DHT22;32646;50.958;6.258;2023-08-31T11:59:53;21.00;77.90
46898;DHT22;32646;50.958;6.258;2023-08-31T12:02:19;20.30;76.50
46898;DHT22;32646;50.958;6.258;2023-08-31T12:04:46;20.00;80.90
46898;DHT22;32646;50.958;6.258;2023-08-31T12:07:18;20.30;84.60
46898;DHT22;32646;50.958;6.258;2023-08-31T12:09:45;21.00;78.90
46898;DHT22;32646;50.958;6.258;2023-08-31T12:12:15;21.80;77.20
46898;DHT22;32646;50.958;6.258;2023-08-31T12:14:43;22.10;80.30
46898;DHT22;32646;50.958;6.258;2023-08-31T12:17:10;22.70;73.40
46898;DHT22;32646;50.958;6.258;2023-08-31T12:19:40;22.80;69.40
46898;DHT22;32646;50.958;6.258;2023-08-31T12:22:06;23.10;74.60
46898;DHT22;32646;50.958;6.258;2023-08-31T12:24:40;22.70;66.30
46898;DHT22;32646;50.958;6.258;2023-08-31T12:27:08;21.70;72.80
46898;DHT22;32646;50.958;6.258;2023-08-31T12:29:35;20.90;72.30
46898;DHT22;32646;50.958;6.258;2023-08-31T12:32:02;20.60;71.80
46898;DHT22;32646;50.958;6.258;2023-08-31T12:34:29;20.50;72.50
46898;DHT22;32646;50.958;6.258;2023-08-31T12:36:56;20.70;70.70
46898;DHT22;32646;50.958;6.258;2023-08-31T12:39:23;20.70;81.60
46898;DHT22;32646;50.958;6.258;2023-08-31T12:41:49;21.10;70.70
46898;DHT22;32646;50.958;6.258;2023-08-31T12:44:16;21.70;75.10
46898;DHT22;32646;50.958;6.258;2023-08-31T12:46:42;21.90;75.90
46898;DHT22;32646;50.958;6.258;2023-08-31T12:49:09;22.20;74.50
46898;DHT22;32646;50.958;6.258;2023-08-31T12:51:36;22.50;71.40
46898;DHT22;32646;50.958;6.258;2023-08-31T12:54:02;22.40;67.60
46898;DHT22;32646;50.958;6.258;2023-08-31T12:56:29;22.20;68.30
46898;DHT22;32646;50.958;6.258;2023-08-31T12:58:56;22.40;68.30
46898;DHT22;32646;50.958;6.258;2023-08-31T13:01:22;22.00;73.20
46898;DHT22;32646;50.958;6.258;2023-08-31T13:03:49;21.90;68.50
46898;DHT22;32646;50.958;6.258;2023-08-31T13:06:16;21.80;64.50
46898;DHT22;32646;50.958;6.258;2023-08-31T13:08:43;22.30;66.40
46898;DHT22;32646;50.958;6.258;2023-08-31T13:11:10;22.50;65.80
46898;DHT22;32646;50.958;6.258;2023-08-31T13:13:37;22.40;64.40
46898;DHT22;32646;50.958;6.258;2023-08-31T13:16:04;21.50;61.90
46898;DHT22;32646;50.958;6.258;2023-08-31T13:18:30;21.20;64.20
46898;DHT22;32646;50.958;6.258;2023-08-31T13:20:57;20.60;70.20
46898;DHT22;32646;50.958;6.258;2023-08-31T13:23:23;20.60;71.70
46898;DHT22;32646;50.958;6.258;2023-08-31T13:25:50;20.60;73.70
46898;DHT22;32646;50.958;6.258;2023-08-31T13:28:17;20.40;71.50
46898;DHT22;32646;50.958;6.258;2023-08-31T13:30:44;20.40;73.20
46898;DHT22;32646;50.958;6.258;2023-08-31T13:33:10;20.30;70.20
46898;DHT22;32646;50.958;6.258;2023-08-31T13:35:37;20.00;71.20
46898;DHT22;32646;50.958;6.258;2023-08-31T13:38:04;19.90;73.80
46898;DHT22;32646;50.958;6.258;2023-08-31T13:40:33;19.80;76.10
46898;DHT22;32646;50.958;6.258;2023-08-31T13:43:00;20.00;78.20
46898;DHT22;32646;50.958;6.258;2023-08-31T13:45:27;20.00;78.50
46898;DHT22;32646;50.958;6.258;2023-08-31T13:47:53;20.00;76.10
46898;DHT22;32646;50.958;6.258;2023-08-31T13:50:20;20.00;81.90
46898;DHT22;32646;50.958;6.258;2023-08-31T13:52:47;19.70;76.60
46898;DHT22;32646;50.958;6.258;2023-08-31T13:55:13;19.50;79.30
46898;DHT22;32646;50.958;6.258;2023-08-31T13:57:41;19.30;81.00
46898;DHT22;32646;50.958;6.258;2023-08-31T14:00:09;19.20;89.00
46898;DHT22;32646;50.958;6.258;2023-08-31T14:02:36;19.00;91.10
46898;DHT22;32646;50.958;6.258;2023-08-31T14:05:06;18.50;95.40
46898;DHT22;32646;50.958;6.258;2023-08-31T14:07:33;18.40;99.90
46898;DHT22;32646;50.958;6.258;2023-08-31T14:10:00;18.30;99.70
46898;DHT22;32646;50.958;6.258;2023-08-31T14:12:26;18.30;98.50
46898;DHT22;32646;50.958;6.258;2023-08-31T14:14:53;18.50;99.90
46898;DHT22;32646;50.958;6.258;2023-08-31T14:17:19;18.80;93.10
46898;DHT22;32646;50.958;6.258;2023-08-31T14:19:46;18.80;86.10
46898;DHT22;32646;50.958;6.258;2023-08-31T14:22:13;18.80;92.50
46898;DHT22;32646;50.958;6.258;2023-08-31T14:24:39;18.90;90.80
46898;DHT22;32646;50.958;6.258;2023-08-31T14:27:06;19.40;91.00
46898;DHT22;32646;50.958;6.258;2023-08-31T14:29:32;20.30;87.10
46898;DHT22;32646;50.958;6.258;2023-08-31T14:31:59;20.90;75.20
46898;DHT22;32646;50.958;6.258;2023-08-31T14:34:26;21.00;70.20
46898;DHT22;32646;50.958;6.258;2023-08-31T14:36:52;21.20;72.40
46898;DHT22;32646;50.958;6.258;2023-08-31T14:39:19;20.90;68.90
46898;DHT22;32646;50.958;6.258;2023-08-31T14:41:45;20.90;68.70
46898;DHT22;32646;50.958;6.258;2023-08-31T14:44:12;21.40;69.70
46898;DHT22;32646;50.958;6.258;2023-08-31T14:46:38;21.10;67.80
46898;DHT22;32646;50.958;6.258;2023-08-31T14:49:05;21.20;74.00
46898;DHT22;32646;50.958;6.258;2023-08-31T14:51:32;21.50;73.20
46898;DHT22;32646;50.958;6.258;2023-08-31T14:53:58;21.70;73.00
46898;DHT22;32646;50.958;6.258;2023-08-31T14:56:25;21.40;68.90
46898;DHT22;32646;50.958;6.258;2023-08-31T14:58:51;21.30;77.10
46898;DHT22;32646;50.958;6.258;2023-08-31T15:01:18;21.00;74.50
46898;DHT22;32646;50.958;6.258;2023-08-31T15:03:45;20.50;72.00
46898;DHT22;32646;50.958;6.258;2023-08-31T15:06:11;20.20;76.00
46898;DHT22;32646;50.958;6.258;2023-08-31T15:08:40;20.30;76.90
46898;DHT22;32646;50.958;6.258;2023-08-31T15:11:06;20.20;74.30
46898;DHT22;32646;50.958;6.258;2023-08-31T15:13:33;20.20;80.40
46898;DHT22;32646;50.958;6.258;2023-08-31T15:16:00;20.00;76.80
46898;DHT22;32646;50.958;6.258;2023-08-31T15:18:27;19.90;74.90
46898;DHT22;32646;50.958;6.258;2023-08-31T15:20:54;19.90;84.20
46898;DHT22;32646;50.958;6.258;2023-08-31T15:23:21;20.00;83.90
46898;DHT22;32646;50.958;6.258;2023-08-31T15:25:48;19.80;83.70
46898;DHT22;32646;50.958;6.258;2023-08-31T15:28:15;19.80;82.30
46898;DHT22;32646;50.958;6.258;2023-08-31T15:30:42;19.80;83.30
46898;DHT22;32646;50.958;6.258;2023-08-31T15:33:09;19.60;80.20
46898;DHT22;32646;50.958;6.258;2023-08-31T15:35:35;19.70;82.50
46898;DHT22;32646;50.958;6.258;2023-08-31T15:38:02;19.70;82.30
46898;DHT22;32646;50.958;6.258;2023-08-31T15:40:28;19.50;82.00
46898;DHT22;32646;50.958;6.258;2023-08-31T15:42:55;19.40;75.90
46898;DHT22;32646;50.958;6.258;2023-08-31T15:45:22;19.30;77.10
46898;DHT22;32646;50.958;6.258;2023-08-31T15:47:50;19.20;81.50
46898;DHT22;32646;50.958;6.258;2023-08-31T15:50:17;19.10;83.60
46898;DHT22;32646;50.958;6.258;2023-08-31T15:52:44;19.00;81.50
46898;DHT22;32646;50.958;6.258;2023-08-31T15:55:11;19.10;87.00
46898;DHT22;32646;50.958;6.258;2023-08-31T15:57:37;19.00;77.60
46898;DHT22;32646;50.958;6.258;2023-08-31T16:00:04;19.00;77.30
46898;DHT22;32646;50.958;6.258;2023-08-31T16:02:32;19.00;78.30
46898;DHT22;32646;50.958;6.258;2023-08-31T16:05:01;18.90;78.50
46898;DHT22;32646;50.958;6.258;2023-08-31T16:07:29;18.90;79.40
46898;DHT22;32646;50.958;6.258;2023-08-31T16:09:56;19.10;77.80
46898;DHT22;32646;50.958;6.258;2023-08-31T16:12:22;19.40;77.60
46898;DHT22;32646;50.958;6.258;2023-08-31T16:14:49;19.40;76.70
46898;DHT22;32646;50.958;6.258;2023-08-31T16:17:16;19.60;76.00
46898;DHT22;32646;50.958;6.258;2023-08-31T16:19:43;19.40;74.20
46898;DHT22;32646;50.958;6.258;2023-08-31T16:22:10;19.30;75.40
46898;DHT22;32646;50.958;6.258;2023-08-31T16:24:36;19.10;79.10
46898;DHT22;32646;50.958;6.258;2023-08-31T16:27:03;18.80;77.60
46898;DHT22;32646;50.958;6.258;2023-08-31T16:29:30;18.70;80.00
46898;DHT22;32646;50.958;6.258;2023-08-31T16:31:57;18.70;80.70
46898;DHT22;32646;50.958;6.258;2023-08-31T16:34:23;18.70;83.80
46898;DHT22;32646;50.958;6.258;2023-08-31T16:36:50;18.70;80.90
46898;DHT22;32646;50.958;6.258;2023-08-31T16:39:16;18.60;77.50
46898;DHT22;32646;50.958;6.258;2023-08-31T16:41:43;18.60;81.40
46898;DHT22;32646;50.958;6.258;2023-08-31T16:44:10;18.60;80.10
46898;DHT22;32646;50.958;6.258;2023-08-31T16:46:36;18.50;82.70
46898;DHT22;32646;50.958;6.258;2023-08-31T16:49:03;18.50;82.60
46898;DHT22;32646;50.958;6.258;2023-08-31T16:51:30;18.50;85.80
46898;DHT22;32646;50.958;6.258;2023-08-31T16:53:56;18.40;85.30
46898;DHT22;32646;50.958;6.258;2023-08-31T16:56:23;18.50;85.80
46898;DHT22;32646;50.958;6.258;2023-08-31T16:58:49;18.60;87.50
46898;DHT22;32646;50.958;6.258;2023-08-31T17:01:16;18.50;88.50
46898;DHT22;32646;50.958;6.258;2023-08-31T17:03:43;18.50;85.00
46898;DHT22;32646;50.958;6.258;2023-08-31T17:06:09;18.50;85.40
46898;DHT22;32646;50.958;6.258;2023-08-31T17:08:36;18.40;86.30
46898;DHT22;32646;50.958;6.258;2023-08-31T17:11:06;18.40;85.00
46898;DHT22;32646;50.958;6.258;2023-08-31T17:13:33;18.40;87.50
46898;DHT22;32646;50.958;6.258;2023-08-31T17:16:00;18.30;86.50
46898;DHT22;32646;50.958;6.258;2023-08-31T17:18:26;18.30;85.70
46898;DHT22;32646;50.958;6.258;2023-08-31T17:20:53;18.20;84.90
46898;DHT22;32646;50.958;6.258;2023-08-31T17:23:20;18.20;85.50
46898;DHT22;32646;50.958;6.258;2023-08-31T17:25:46;18.10;87.50
46898;DHT22;32646;50.958;6.258;2023-08-31T17:28:13;18.00;87.80
46898;DHT22;32646;50.958;6.258;2023-08-31T17:30:40;17.90;87.30
46898;DHT22;32646;50.958;6.258;2023-08-31T17:33:07;17.90;86.10
46898;DHT22;32646;50.958;6.258;2023-08-31T17:35:34;17.80;88.40
46898;DHT22;32646;50.958;6.258;2023-08-31T17:38:00;17.70;87.70
46898;DHT22;32646;50.958;6.258;2023-08-31T17:40:27;17.70;90.30
46898;DHT22;32646;50.958;6.258;2023-08-31T17:42:53;17.60;88.70
46898;DHT22;32646;50.958;6.258;2023-08-31T17:45:20;17.70;88.90
46898;DHT22;32646;50.958;6.258;2023-08-31T17:47:49;17.70;88.10
46898;DHT22;32646;50.958;6.258;2023-08-31T17:50:16;17.60;88.50
46898;DHT22;32646;50.958;6.258;2023-08-31T17:52:43;17.70;89.30
46898;DHT22;32646;50.958;6.258;2023-08-31T17:55:09;17.60;88.10
46898;DHT22;32646;50.958;6.258;2023-08-31T17:57:36;17.60;86.80
46898;DHT22;32646;50.958;6.258;2023-08-31T18:00:03;17.50;88.90
46898;DHT22;32646;50.958;6.258;2023-08-31T18:02:30;17.50;89.90
46898;DHT22;32646;50.958;6.258;2023-08-31T18:04:56;17.40;89.80
46898;DHT22;32646;50.958;6.258;2023-08-31T18:07:23;17.30;91.20
46898;DHT22;32646;50.958;6.258;2023-08-31T18:09:50;17.30;91.50
46898;DHT22;32646;50.958;6.258;2023-08-31T18:12:16;17.10;91.10
46898;DHT22;32646;50.958;6.258;2023-08-31T18:14:43;17.00;91.90
46898;DHT22;32646;50.958;6.258;2023-08-31T18:17:10;16.90;92.80
46898;DHT22;32646;50.958;6.258;2023-08-31T18:19:37;16.90;93.40
46898;DHT22;32646;50.958;6.258;2023-08-31T18:22:03;16.80;93.70
46898;DHT22;32646;50.958;6.258;2023-08-31T18:24:30;16.70;93.50
46898;DHT22;32646;50.958;6.258;2023-08-31T18:26:57;16.70;93.80
46898;DHT22;32646;50.958;6.258;2023-08-31T18:29:23;16.60;95.30
46898;DHT22;32646;50.958;6.258;2023-08-31T18:31:50;16.50;96.20
46898;DHT22;32646;50.958;6.258;2023-08-31T18:34:16;16.30;97.30
46898;DHT22;32646;50.958;6.258;2023-08-31T18:36:43;16.20;98.20
46898;DHT22;32646;50.958;6.258;2023-08-31T18:39:09;16.20;99.30
46898;DHT22;32646;50.958;6.258;2023-08-31T18:41:37;16.10;99.90
46898;DHT22;32646;50.958;6.258;2023-08-31T18:44:03;16.00;98.80
46898;DHT22;32646;50.958;6.258;2023-08-31T18:46:30;16.00;99.90
46898;DHT22;32646;50.958;6.258;2023-08-31T18:48:57;15.90;99.90
46898;DHT22;32646;50.958;6.258;2023-08-31T18:51:24;15.70;99.90
46898;DHT22;32646;50.958;6.258;2023-08-31T18:53:50;15.70;99.90
46898;DHT22;32646;50.958;6.258;2023-08-31T18:56:17;15.70;99.90
46898;DHT22;32646;50.958;6.258;2023-08-31T18:58:43;15.50;99.90
46898;DHT22;32646;50.958;6.258;2023-08-31T19:01:11;15.50;99.90
46898;DHT22;32646;50.958;6.258;2023-08-31T19:03:38;15.40;99.90
46898;DHT22;32646;50.958;6.258;2023-08-31T19:06:04;15.30;99.90
46898;DHT22;32646;50.958;6.258;2023-08-31T19:08:31;15.30;99.90
46898;DHT22;32646;50.958;6.258;2023-08-31T19:10:59;15.30;99.90
46898;DHT22;32646;50.958;6.258;2023-08-31T19:13:31;15.30;99.90
46898;DHT22;32646;50.958;6.258;2023-08-31T19:15:58;15.30;99.90
46898;DHT22;32646;50.958;6.258;2023-08-31T19:18:24;15.30;99.90
46898;DHT22;32646;50.958;6.258;2023-08-31T19:20:51;15.30;99.90
46898;DHT22;32646;50.958;6.258;2023-08-31T19:23:18;15.20;99.90
46898;DHT22;32646;50.958;6.258;2023-08-31T19:25:45;15.20;99.90
46898;DHT22;32646;50.958;6.258;2023-08-31T19:28:11;15.10;99.90
46898;DHT22;32646;50.958;6.258;2023-08-31T19:30:39;15.00;99.90
46898;DHT22;32646;50.958;6.258;2023-08-31T19:33:05;15.00;99.90
46898;DHT22;32646;50.958;6.258;2023-08-31T19:35:32;15.00;99.90
46898;DHT22;32646;50.958;6.258;2023-08-31T19:38:01;14.90;99.90
46898;DHT22;32646;50.958;6.258;2023-08-31T19:40:28;14.90;99.90
46898;DHT22;32646;50.958;6.258;2023-08-31T19:42:55;15.00;99.90
46898;DHT22;32646;50.958;6.258;2023-08-31T19:45:21;15.00;99.90
46898;DHT22;32646;50.958;6.258;2023-08-31T19:47:48;15.00;99.90
46898;DHT22;32646;50.958;6.258;2023-08-31T19:50:15;15.00;99.90
46898;DHT22;32646;50.958;6.258;2023-08-31T19:52:42;14.90;99.90
46898;DHT22;32646;50.958;6.258;2023-08-31T19:55:12;14.90;99.90
46898;DHT22;32646;50.958;6.258;2023-08-31T19:57:39;14.80;99.90
46898;DHT22;32646;50.958;6.258;2023-08-31T20:00:07;14.80;99.90
46898;DHT22;32646;50.958;6.258;2023-08-31T20:02:35;14.80;99.90
46898;DHT22;32646;50.958;6.258;2023-08-31T20:05:02;14.70;99.90
46898;DHT22;32646;50.958;6.258;2023-08-31T20:07:28;14.70;99.90
46898;DHT22;32646;50.958;6.258;2023-08-31T20:09:55;14.60;99.90
46898;DHT22;32646;50.958;6.258;2023-08-31T20:12:22;14.60;99.90
46898;DHT22;32646;50.958;6.258;2023-08-31T20:14:48;14.60;99.90
46898;DHT22;32646;50.958;6.258;2023-08-31T20:17:15;14.60;99.90
46898;DHT22;32646;50.958;6.258;2023-08-31T20:19:41;14.40;99.90
46898;DHT22;32646;50.958;6.258;2023-08-31T20:22:08;14.40;99.90
46898;DHT22;32646;50.958;6.258;2023-08-31T20:24:35;14.30;99.90
46898;DHT22;32646;50.958;6.258;2023-08-31T20:27:01;14.30;99.90
46898;DHT22;32646;50.958;6.258;2023-08-31T20:29:29;14.20;99.90
46898;DHT22;32646;50.958;6.258;2023-08-31T20:31:55;14.20;99.90
46898;DHT22;32646;50.958;6.258;2023-08-31T20:34:22;14.10;99.90
46898;DHT22;32646;50.958;6.258;2023-08-31T20:36:49;14.00;99.90
46898;DHT22;32646;50.958;6.258;2023-08-31T20:39:16;13.80;99.90
46898;DHT22;32646;50.958;6.258;2023-08-31T20:41:43;13.70;99.90
46898;DHT22;32646;50.958;6.258;2023-08-31T20:44:09;13.70;99.90
46898;DHT22;32646;50.958;6.258;2023-08-31T20:46:36;13.60;99.90
46898;DHT22;32646;50.958;6.258;2023-08-31T20:49:04;13.60;99.90
46898;DHT22;32646;50.958;6.258;2023-08-31T20:51:33;13.50;99.90
46898;DHT22;32646;50.958;6.258;2023-08-31T20:54:00;13.60;99.90
46898;DHT22;32646;50.958;6.258;2023-08-31T20:56:27;13.50;99.90
46898;DHT22;32646;50.958;6.258;2023-08-31T20:58:54;13.50;99.90
46898;DHT22;32646;50.958;6.258;2023-08-31T21:01:20;13.50;99.90
46898;DHT22;32646;50.958;6.258;2023-08-31T21:03:53;13.50;99.90
46898;DHT22;32646;50.958;6.258;2023-08-31T21:06:20;13.50;99.90
46898;DHT22;32646;50.958;6.258;2023-08-31T21:08:47;13.40;99.90
46898;DHT22;32646;50.958;6.258;2023-08-31T21:11:13;13.50;99.90
46898;DHT22;32646;50.958;6.258;2023-08-31T21:13:40;13.50;99.90
46898;DHT22;32646;50.958;6.258;2023-08-31T21:16:07;13.50;99.90
46898;DHT22;32646;50.958;6.258;2023-08-31T21:18:33;13.50;99.90
46898;DHT22;32646;50.958;6.258;2023-08-31T21:21:00;13.40;99.90
46898;DHT22;32646;50.958;6.258;2023-08-31T21:23:27;13.40;99.90
46898;DHT22;32646;50.958;6.258;2023-08-31T21:25:53;13.30;99.90
46898;DHT22;32646;50.958;6.258;2023-08-31T21:28:20;13.30;99.90
46898;DHT22;32646;50.958;6.258;2023-08-31T21:30:49;13.30;99.90
46898;DHT22;32646;50.958;6.258;2023-08-31T21:33:16;13.30;99.90
46898;DHT22;32646;50.958;6.258;2023-08-31T21:35:43;13.30;99.90
46898;DHT22;32646;50.958;6.258;2023-08-31T21:38:10;13.30;99.90
46898;DHT22;32646;50.958;6.258;2023-08-31T21:40:41;13.30;99.90
46898;DHT22;32646;50.958;6.258;2023-08-31T21:43:09;13.40;99.90
46898;DHT22;32646;50.958;6.258;2023-08-31T21:45:36;13.40;99.90
46898;DHT22;32646;50.958;6.258;2023-08-31T21:48:03;13.40;99.90
46898;DHT22;32646;50.958;6.258;2023-08-31T21:50:31;13.30;99.90
46898;DHT22;32646;50.958;6.258;2023-08-31T21:52:59;13.30;99.90